createdAt,value
2022-12-09T00:00:55.919Z,0.50
2022-12-09T00:03:58.430Z,0.55
2022-12-09T00:07:01.348Z,0.54
2022-12-09T00:10:05.440Z,0.68
2022-12-09T00:13:08.469Z,0.56
2022-12-09T00:16:13.343Z,0.61
2022-12-09T00:19:15.871Z,0.62
2022-12-09T00:22:18.172Z,0.55
2022-12-09T00:25:20.486Z,0.59
2022-12-09T00:28:22.862Z,0.62
2022-12-09T00:31:32.309Z,0.47
2022-12-09T00:34:34.897Z,0.47
2022-12-09T00:37:37.239Z,0.53
2022-12-09T00:40:39.531Z,0.58
2022-12-09T00:43:42.842Z,0.66
2022-12-09T00:46:45.560Z,0.68
2022-12-09T00:49:48.198Z,0.69
2022-12-09T00:52:51.280Z,0.70
2022-12-09T00:55:53.706Z,0.75
2022-12-09T00:58:57.401Z,0.76
2022-12-09T01:02:01.000Z,0.76
2022-12-09T01:05:04.762Z,0.71
2022-12-09T01:08:07.480Z,0.57
2022-12-09T01:11:16.362Z,0.67
2022-12-09T01:14:18.930Z,0.59
2022-12-09T01:17:21.397Z,0.63
2022-12-09T01:20:24.117Z,0.70
2022-12-09T01:23:26.772Z,0.69
2022-12-09T01:26:29.185Z,0.77
2022-12-09T01:29:31.743Z,0.75
2022-12-09T01:32:34.460Z,0.72
2022-12-09T01:35:41.549Z,0.74
2022-12-09T01:38:44.783Z,0.63
2022-12-09T01:41:49.723Z,0.73
2022-12-09T01:45:32.835Z,0.75
2022-12-09T01:48:40.918Z,0.79
2022-12-09T01:51:44.625Z,0.73
2022-12-09T01:54:51.343Z,0.71
2022-12-09T01:57:54.658Z,0.70
2022-12-09T02:00:57.062Z,0.87
2022-12-09T02:04:00.011Z,0.83
2022-12-09T02:07:05.062Z,0.86
2022-12-09T02:10:11.858Z,0.84
2022-12-09T02:13:56.921Z,0.82
2022-12-09T02:17:22.044Z,0.87
2022-12-09T02:20:33.498Z,0.76
2022-12-09T02:23:54.187Z,0.53
2022-12-09T02:27:42.052Z,0.77
2022-12-09T02:31:02.812Z,0.83
2022-12-09T02:34:20.341Z,0.65
2022-12-09T02:37:34.363Z,0.66
2022-12-09T02:40:43.369Z,0.47
2022-12-09T02:43:55.537Z,0.54
2022-12-09T02:47:04.875Z,0.57
2022-12-09T02:50:11.075Z,0.62
2022-12-09T02:53:14.762Z,0.66
2022-12-09T02:56:18.867Z,0.55
2022-12-09T02:59:21.297Z,0.55
2022-12-09T03:02:37.654Z,0.51
2022-12-09T03:05:48.035Z,0.59
2022-12-09T03:08:54.671Z,0.65
2022-12-09T03:12:00.170Z,0.75
2022-12-09T03:15:05.144Z,0.68
2022-12-09T03:18:10.128Z,0.61
2022-12-09T03:21:15.134Z,0.61
2022-12-09T03:24:21.735Z,0.46
2022-12-09T03:27:30.375Z,0.60
2022-12-09T03:30:36.195Z,0.52
2022-12-09T03:33:38.716Z,0.55
2022-12-09T03:36:42.237Z,0.62
2022-12-09T03:39:45.687Z,0.51
2022-12-09T03:43:14.061Z,0.63
2022-12-09T03:46:16.525Z,0.70
2022-12-09T03:49:19.050Z,0.56
2022-12-09T03:52:33.200Z,0.46
2022-12-09T03:56:13.641Z,0.45
2022-12-09T03:59:16.780Z,0.60
2022-12-09T04:02:19.723Z,0.49
2022-12-09T04:05:22.590Z,0.60
2022-12-09T04:08:25.410Z,0.49
2022-12-09T04:11:27.809Z,0.40
2022-12-09T04:14:30.141Z,0.46
2022-12-09T04:17:32.607Z,0.52
2022-12-09T04:20:35.530Z,0.61
2022-12-09T04:23:42.968Z,0.65
2022-12-09T04:26:46.114Z,0.61
2022-12-09T04:29:48.755Z,0.65
2022-12-09T04:32:51.220Z,0.75
2022-12-09T04:35:53.957Z,0.86
2022-12-09T04:38:56.556Z,0.92
2022-12-09T04:41:59.263Z,0.94
2022-12-09T04:45:01.618Z,0.86
2022-12-09T04:48:04.110Z,0.85
2022-12-09T04:51:11.920Z,0.95
2022-12-09T04:54:14.834Z,0.89
2022-12-09T04:57:17.967Z,0.93
2022-12-09T05:00:21.124Z,1.18
2022-12-09T05:03:24.002Z,1.37
2022-12-09T05:06:26.802Z,1.51
2022-12-09T05:09:29.555Z,1.54
2022-12-09T05:12:33.499Z,1.38
2022-12-09T05:15:38.923Z,1.29
2022-12-09T05:18:41.769Z,1.37
2022-12-09T05:21:44.688Z,1.29
2022-12-09T05:24:47.556Z,1.37
2022-12-09T05:27:50.337Z,1.31
2022-12-09T05:30:53.346Z,1.29
2022-12-09T05:33:56.291Z,1.20
2022-12-09T05:36:59.031Z,1.19
2022-12-09T05:40:02.055Z,1.25
2022-12-09T05:43:04.501Z,1.19
2022-12-09T05:46:07.661Z,1.14
2022-12-09T05:49:10.326Z,1.03
2022-12-09T05:52:14.482Z,0.74
2022-12-09T05:55:17.034Z,0.47
2022-12-09T05:58:20.523Z,0.32
2022-12-09T06:01:24.212Z,0.43
2022-12-09T06:04:27.091Z,0.25
2022-12-09T06:07:29.635Z,0.19
2022-12-09T06:10:32.755Z,0.20
2022-12-09T06:13:35.936Z,0.23
2022-12-09T06:16:39.133Z,0.17
2022-12-09T06:19:42.429Z,0.17
2022-12-09T06:22:45.809Z,0.15
2022-12-09T06:25:48.429Z,0.09
2022-12-09T06:28:52.121Z,0.13
2022-12-09T06:31:54.866Z,0.03
2022-12-09T06:34:57.553Z,0.26
2022-12-09T06:38:00.457Z,0.31
2022-12-09T06:41:07.612Z,0.38
2022-12-09T06:44:15.854Z,0.37
2022-12-09T06:47:22.259Z,0.52
2022-12-09T06:50:25.274Z,0.54
2022-12-09T06:53:28.328Z,0.56
2022-12-09T06:56:32.642Z,0.72
2022-12-09T06:59:35.231Z,0.56
2022-12-09T07:02:38.153Z,0.36
2022-12-09T07:05:41.230Z,0.31
2022-12-09T07:08:44.200Z,0.39
2022-12-09T07:11:47.458Z,0.36
2022-12-09T07:14:50.920Z,0.40
2022-12-09T07:17:53.510Z,0.36
2022-12-09T07:20:56.307Z,0.30
2022-12-09T07:24:03.188Z,0.32
2022-12-09T07:27:11.863Z,0.31
2022-12-09T07:30:17.012Z,0.50
2022-12-09T07:33:19.566Z,0.65
2022-12-09T07:36:24.282Z,0.72
2022-12-09T07:39:26.914Z,0.59
2022-12-09T07:42:29.604Z,0.59
2022-12-09T07:45:38.779Z,0.88
2022-12-09T07:48:41.751Z,0.96
2022-12-09T07:51:44.628Z,0.77
2022-12-09T07:54:47.070Z,0.64
2022-12-09T07:57:49.753Z,0.81
2022-12-09T08:00:52.121Z,0.77
2022-12-09T08:03:55.634Z,0.73
2022-12-09T08:06:59.670Z,0.69
2022-12-09T08:10:02.942Z,0.73
2022-12-09T08:13:05.526Z,0.88
2022-12-09T08:16:09.625Z,0.85
2022-12-09T08:19:13.575Z,0.79
2022-12-09T08:22:16.188Z,0.70
2022-12-09T08:25:19.160Z,0.79
2022-12-09T08:28:23.186Z,0.72
2022-12-09T08:31:27.402Z,0.71
2022-12-09T08:34:30.067Z,0.90
2022-12-09T08:37:32.747Z,1.24
2022-12-09T08:40:35.547Z,1.67
2022-12-09T08:43:39.444Z,1.43
2022-12-09T08:46:44.583Z,1.07
2022-12-09T08:49:47.480Z,1.07
2022-12-09T08:52:49.865Z,0.95
2022-12-09T08:55:52.734Z,0.93
2022-12-09T08:58:55.678Z,0.98
2022-12-09T09:01:58.078Z,0.91
2022-12-09T09:05:01.710Z,0.86
2022-12-09T09:08:04.354Z,0.71
2022-12-09T09:11:12.375Z,0.80
2022-12-09T09:14:15.806Z,0.76
2022-12-09T09:17:18.792Z,0.86
2022-12-09T09:20:21.615Z,0.88
2022-12-09T09:23:24.249Z,0.87
2022-12-09T09:26:31.078Z,0.93
2022-12-09T09:29:34.258Z,0.94
2022-12-09T09:32:37.142Z,0.91
2022-12-09T09:35:39.670Z,0.88
2022-12-09T09:38:42.573Z,1.26
2022-12-09T09:41:56.306Z,1.10
2022-12-09T09:44:59.027Z,1.11
2022-12-09T09:48:03.607Z,1.03
2022-12-09T09:51:19.200Z,0.93
2022-12-09T09:54:22.146Z,1.07
2022-12-09T09:57:33.348Z,1.50
2022-12-09T10:00:43.451Z,1.86
2022-12-09T10:04:11.175Z,1.84
2022-12-09T10:07:37.547Z,1.86
2022-12-09T10:10:52.658Z,2.10
2022-12-09T10:14:05.920Z,1.87
2022-12-09T10:17:28.138Z,2.13
2022-12-09T10:20:33.087Z,2.05
2022-12-09T10:23:36.082Z,1.95
2022-12-09T10:26:39.380Z,1.95
2022-12-09T10:30:14.290Z,1.82
2022-12-09T10:33:21.546Z,1.66
2022-12-09T10:36:32.353Z,1.51
2022-12-09T10:39:38.198Z,1.35
2022-12-09T10:43:08.078Z,1.73
2022-12-09T10:46:18.557Z,1.86
2022-12-09T10:49:22.891Z,1.88
2022-12-09T10:52:30.351Z,1.63
2022-12-09T10:55:38.945Z,1.66
2022-12-09T10:58:41.451Z,1.43
2022-12-09T11:02:04.529Z,1.51
2022-12-09T11:05:28.700Z,1.48
2022-12-09T11:08:32.000Z,1.40
2022-12-09T11:11:47.972Z,1.30
2022-12-09T11:14:53.345Z,1.18
2022-12-09T11:18:05.240Z,1.32
2022-12-09T11:21:09.639Z,1.36
2022-12-09T11:24:23.150Z,1.41
2022-12-09T11:27:36.183Z,1.45
2022-12-09T11:30:57.565Z,1.65
2022-12-09T11:34:15.413Z,1.59
2022-12-09T11:37:18.087Z,1.58
2022-12-09T11:40:29.499Z,1.61
2022-12-09T11:43:45.067Z,1.79
2022-12-09T11:46:55.809Z,1.79
2022-12-09T11:50:07.447Z,1.60
2022-12-09T11:53:13.067Z,1.58
2022-12-09T11:56:22.016Z,1.82
2022-12-09T11:59:37.798Z,1.73
2022-12-09T12:03:04.309Z,1.66
2022-12-09T12:06:13.715Z,1.69
2022-12-09T12:09:18.062Z,1.70
2022-12-09T12:12:44.778Z,2.12
2022-12-09T12:15:59.492Z,2.13
2022-12-09T12:19:22.321Z,1.96
2022-12-09T12:22:54.902Z,1.87
2022-12-09T12:26:26.744Z,1.72
2022-12-09T12:29:56.713Z,1.70
2022-12-09T12:36:39.000Z,1.60
2022-12-09T12:39:47.056Z,1.70
2022-12-09T12:43:30.179Z,1.78
2022-12-09T12:47:17.261Z,1.69
2022-12-09T12:50:23.898Z,1.70
2022-12-09T12:53:35.139Z,1.69
2022-12-09T12:57:15.869Z,1.65
2022-12-09T13:00:21.443Z,1.65
2022-12-09T13:04:01.461Z,1.81
2022-12-09T13:07:11.624Z,1.83
2022-12-09T13:10:22.158Z,1.74
2022-12-09T13:13:42.289Z,1.64
2022-12-09T13:16:45.676Z,1.63
2022-12-09T13:19:52.135Z,1.57
2022-12-09T13:23:00.872Z,1.60
2022-12-09T13:26:30.556Z,1.53
2022-12-09T13:29:43.072Z,1.58
2022-12-09T13:33:16.545Z,1.53
2022-12-09T13:36:18.899Z,1.37
2022-12-09T13:39:40.160Z,1.44
2022-12-09T13:42:56.664Z,1.44
2022-12-09T13:46:00.954Z,1.43
2022-12-09T13:49:24.917Z,1.27
2022-12-09T13:52:51.870Z,1.22
2022-12-09T13:55:57.755Z,1.21
2022-12-09T13:59:47.986Z,1.23
2022-12-09T14:02:58.912Z,0.98
2022-12-09T14:06:02.911Z,1.05
2022-12-09T14:09:07.401Z,0.93
2022-12-09T14:12:15.303Z,0.97
2022-12-09T14:15:23.828Z,0.88
2022-12-09T14:18:32.942Z,0.72
2022-12-09T14:21:35.501Z,0.69
2022-12-09T14:24:38.076Z,0.62
2022-12-09T14:27:40.434Z,0.85
2022-12-09T14:31:06.541Z,0.89
2022-12-09T14:34:28.992Z,0.94
2022-12-09T14:37:43.150Z,0.93
2022-12-09T14:41:04.732Z,0.78
2022-12-09T14:44:26.749Z,0.62
2022-12-09T14:47:31.769Z,0.37
2022-12-09T14:50:38.448Z,0.25
2022-12-09T14:53:40.933Z,0.32
2022-12-09T14:56:47.797Z,0.09
2022-12-09T14:59:52.378Z,-0.08
2022-12-09T15:03:30.026Z,-0.21
2022-12-09T15:06:19.645Z,-0.30
2022-12-09T15:09:21.932Z,-0.35
2022-12-09T15:12:32.070Z,-0.32
2022-12-09T15:15:36.865Z,-0.24
2022-12-09T15:18:41.436Z,-0.01
2022-12-09T15:21:47.463Z,0.10
2022-12-09T15:24:51.171Z,0.19
2022-12-09T15:28:16.043Z,0.31
2022-12-09T15:31:24.393Z,0.41
2022-12-09T15:34:26.976Z,0.65
2022-12-09T15:37:29.608Z,0.51
2022-12-09T15:40:33.586Z,0.52
2022-12-09T15:43:35.934Z,0.56
2022-12-09T15:46:40.779Z,0.62
2022-12-09T15:49:49.387Z,0.68
2022-12-09T15:52:53.070Z,0.91
2022-12-09T15:55:59.484Z,0.95
2022-12-09T15:59:10.250Z,0.82
2022-12-09T16:02:17.473Z,0.79
2022-12-09T16:05:26.402Z,0.85
2022-12-09T16:08:34.476Z,0.93
2022-12-09T16:11:41.138Z,0.85
2022-12-09T16:14:44.852Z,0.86
2022-12-09T16:17:55.675Z,1.00
2022-12-09T16:21:13.039Z,1.02
2022-12-09T16:24:15.347Z,1.02
2022-12-09T16:27:20.542Z,1.14
2022-12-09T16:30:25.688Z,0.84
2022-12-09T16:33:29.100Z,0.72
2022-12-09T16:36:32.651Z,0.82
2022-12-09T16:39:35.679Z,0.90
2022-12-09T16:42:40.976Z,0.95
2022-12-09T16:45:56.614Z,1.05
2022-12-09T16:49:04.749Z,1.03
2022-12-09T16:52:11.521Z,0.94
2022-12-09T16:55:21.616Z,1.02
2022-12-09T16:58:24.068Z,0.71
2022-12-09T17:01:30.649Z,0.76
2022-12-09T17:04:33.026Z,0.77
2022-12-09T17:07:35.581Z,0.78
2022-12-09T17:10:39.858Z,0.74
2022-12-09T17:13:42.244Z,0.71
2022-12-09T17:16:44.799Z,0.87
2022-12-09T17:19:48.114Z,0.74
2022-12-09T17:22:50.627Z,0.97
2022-12-09T17:26:00.012Z,0.79
2022-12-09T17:29:02.358Z,0.71
2022-12-09T17:32:05.150Z,0.68
2022-12-09T17:35:12.522Z,0.57
2022-12-09T17:38:15.277Z,0.98
2022-12-09T17:41:20.761Z,0.95
2022-12-09T17:44:23.166Z,0.82
2022-12-09T17:47:25.525Z,0.71
2022-12-09T17:50:27.910Z,0.50
2022-12-09T17:53:30.359Z,0.62
2022-12-09T17:56:32.679Z,0.51
2022-12-09T17:59:35.153Z,0.57
2022-12-09T18:02:38.248Z,0.56
2022-12-09T18:05:40.686Z,0.57
2022-12-09T18:08:43.486Z,0.49
2022-12-09T18:11:46.699Z,0.47
2022-12-09T18:14:49.268Z,0.19
2022-12-09T18:17:51.540Z,0.36
2022-12-09T18:20:54.287Z,0.24
2022-12-09T18:23:56.681Z,0.19
2022-12-09T18:26:59.079Z,0.28
2022-12-09T18:30:01.426Z,0.27
2022-12-09T18:33:03.826Z,0.16
2022-12-09T18:36:11.438Z,0.26
2022-12-09T18:39:13.920Z,0.17
2022-12-09T18:42:17.793Z,0.20
2022-12-09T18:45:20.983Z,0.38
2022-12-09T18:48:23.221Z,0.38
2022-12-09T18:51:26.115Z,0.49
2022-12-09T18:54:29.364Z,0.39
2022-12-09T18:57:33.145Z,0.36
2022-12-09T19:00:36.836Z,0.06
2022-12-09T19:03:40.001Z,0.37
2022-12-09T19:06:44.222Z,0.38
2022-12-09T19:09:46.709Z,0.41
2022-12-09T19:12:55.130Z,0.52
2022-12-09T19:15:59.263Z,0.62
2022-12-09T19:19:08.766Z,0.47
2022-12-09T19:22:12.263Z,0.40
2022-12-09T19:25:14.882Z,0.57
2022-12-09T19:28:17.698Z,0.45
2022-12-09T19:31:26.118Z,0.49
2022-12-09T19:34:30.108Z,0.54
2022-12-09T19:37:32.485Z,0.47
2022-12-09T19:40:35.087Z,0.52
2022-12-09T19:43:37.719Z,0.37
2022-12-09T19:46:40.908Z,0.47
2022-12-09T19:49:44.592Z,0.41
2022-12-09T19:52:46.935Z,0.30
2022-12-09T19:55:49.206Z,0.42
2022-12-09T19:58:52.313Z,0.38
2022-12-09T20:01:54.954Z,0.42
2022-12-09T20:04:57.475Z,0.45
2022-12-09T20:07:59.965Z,0.52
2022-12-09T20:11:02.889Z,0.47
2022-12-09T20:14:06.988Z,0.41
2022-12-09T20:17:12.204Z,0.46
2022-12-09T20:20:14.753Z,0.22
2022-12-09T20:23:17.324Z,0.36
2022-12-09T20:26:26.479Z,0.48
2022-12-09T20:29:33.952Z,0.19
2022-12-09T20:32:39.683Z,0.33
2022-12-09T20:35:41.995Z,0.24
2022-12-09T20:38:45.093Z,0.37
2022-12-09T20:41:48.864Z,0.13
2022-12-09T20:44:51.204Z,0.30
2022-12-09T20:47:53.526Z,0.24
2022-12-09T20:50:56.052Z,0.17
2022-12-09T20:53:59.498Z,0.00
2022-12-09T20:57:01.782Z,0.05
2022-12-09T21:00:05.151Z,-0.08
2022-12-09T21:03:07.586Z,-0.10
2022-12-09T21:06:10.800Z,-0.34
2022-12-09T21:09:17.657Z,-0.36
2022-12-09T21:12:20.182Z,-0.57
2022-12-09T21:15:23.606Z,-0.69
2022-12-09T21:18:25.855Z,-0.69
2022-12-09T21:21:31.153Z,-0.98
2022-12-09T21:24:34.064Z,-1.01
2022-12-09T21:27:36.690Z,-1.35
2022-12-09T21:30:39.587Z,-1.26
2022-12-09T21:33:43.901Z,-1.37
2022-12-09T21:36:46.471Z,-1.38
2022-12-09T21:39:48.916Z,-1.40
2022-12-09T21:42:51.501Z,-1.49
2022-12-09T21:45:54.975Z,-1.78
2022-12-09T21:49:03.628Z,-1.64
2022-12-09T21:52:06.834Z,-1.72
2022-12-09T21:55:09.654Z,-1.76
2022-12-09T21:58:12.012Z,-1.76
2022-12-09T22:01:17.162Z,-1.74
2022-12-09T22:04:19.730Z,-1.73
2022-12-09T22:07:22.008Z,-1.84
2022-12-09T22:10:24.549Z,-1.86
2022-12-09T22:13:27.532Z,-1.84
2022-12-09T22:16:32.910Z,-1.98
2022-12-09T22:19:35.414Z,-1.85
2022-12-09T22:22:39.440Z,-1.79
2022-12-09T22:25:41.897Z,-1.91
2022-12-09T22:28:44.605Z,-1.99
2022-12-09T22:31:47.935Z,-1.86
2022-12-09T22:34:50.557Z,-1.95
2022-12-09T22:37:52.949Z,-2.05
2022-12-09T22:40:55.312Z,-1.90
2022-12-09T22:43:58.073Z,-1.95
2022-12-09T22:47:00.443Z,-1.94
2022-12-09T22:50:02.771Z,-1.94
2022-12-09T22:53:05.275Z,-1.92
2022-12-09T22:56:09.490Z,-2.02
2022-12-09T22:59:13.615Z,-1.92
2022-12-09T23:02:16.077Z,-1.82
2022-12-09T23:05:18.513Z,-1.93
2022-12-09T23:08:20.935Z,-1.92
2022-12-09T23:11:29.382Z,-1.90
2022-12-09T23:14:31.809Z,-2.04
2022-12-09T23:17:34.962Z,-2.10
2022-12-09T23:20:37.966Z,-2.09
2022-12-09T23:23:41.044Z,-2.15
2022-12-09T23:26:43.956Z,-2.01
2022-12-09T23:29:46.396Z,-1.80
2022-12-09T23:32:48.865Z,-1.84
2022-12-09T23:35:51.175Z,-1.56
2022-12-09T23:38:54.729Z,-1.37
2022-12-09T23:41:57.103Z,-1.15
2022-12-09T23:44:59.559Z,-1.12
2022-12-09T23:48:02.228Z,-1.01
2022-12-09T23:51:35.691Z,-0.79
2022-12-09T23:54:38.004Z,-0.74
2022-12-09T23:57:40.364Z,-0.54
